Time;durP1;ratioP1;P1;durP2;ratioP2;P2;SDS_P1;SDS_P2;PMS_P1;PMS_P2;Temp;Humidity;BMP_temperature;BMP_pressure;BME280_temperature;BME280_humidity;BME280_pressure;Samples;Min_cycle;Max_cycle;Signal;HPM_P1;HPM_P2
2022/10/25 00:01:46;;;;;;;;;;;;;;;13.19;68.24;101292.38;5012390;28;19944;-81
2022/10/25 00:04:11;;;;;;;;;;;;;;;13.09;68.64;101281.72;5018557;28;19921;-82
2022/10/25 00:06:37;;;;;;;;;;;;;;;13.12;68.75;101281.38;5009106;28;19917;-85
2022/10/25 00:09:02;;;;;;;;;;;;;;;13.07;68.79;101268.38;4991482;28;19925;-83
2022/10/25 00:11:31;;;;;;;;;;;;;;;13.03;69.10;101272.41;4993572;28;20282;-83
2022/10/25 00:13:57;;;;;;;;;;;;;;;13.13;68.89;101274.13;5008684;28;20260;-82
2022/10/25 00:16:24;;;;;;;;;;;;;;;13.07;68.76;101278.34;5008110;28;19918;-83
2022/10/25 00:18:50;;;;;;;;;;;;;;;13.10;68.88;101278.84;5006905;28;20250;-81
2022/10/25 00:21:16;;;;;;;;;;;;;;;13.02;68.92;101283.38;5008690;28;19917;-83
2022/10/25 00:23:41;;;;;;;;;;;;;;;13.05;68.96;101274.94;5007897;28;19940;-82
2022/10/25 00:26:07;;;;;;;;;;;;;;;13.08;69.02;101271.91;4990168;28;20031;-83
2022/10/25 00:28:32;;;;;;;;;;;;;;;13.03;69.11;101263.47;5005932;28;19930;-83
2022/10/25 00:31:01;;;;;;;;;;;;;;;12.99;69.29;101259.38;5005228;28;19948;-83
2022/10/25 00:33:29;;;;;;;;;;;;;;;13.03;69.16;101252.66;5004662;28;19922;-83
2022/10/25 00:35:54;;;;;;;;;;;;;;;13.04;69.12;101260.63;4979624;28;19957;-86
2022/10/25 00:38:20;;;;;;;;;;;;;;;13.04;69.19;101257.91;4972127;28;21034;-87
2022/10/25 00:40:45;;;;;;;;;;;;;;;13.03;69.33;101248.09;5005564;28;20390;-82
2022/10/25 00:43:10;;;;;;;;;;;;;;;13.02;69.38;101254.53;4979954;28;19922;-81
2022/10/25 00:45:36;;;;;;;;;;;;;;;13.02;69.53;101256.38;4954734;28;19933;-84
2022/10/25 00:48:06;;;;;;;;;;;;;;;13.01;69.56;101257.38;4980276;28;19929;-83
2022/10/25 00:50:46;;;;;;;;;;;;;;;12.98;69.55;101252.31;4971323;28;20713;-83
2022/10/25 00:53:13;;;;;;;;;;;;;;;12.97;69.75;101251.47;4975428;28;19929;-84
2022/10/25 00:55:40;;;;;;;;;;;;;;;12.93;69.92;101243.88;4984680;28;20492;-84
2022/10/25 00:58:07;;;;;;;;;;;;;;;12.87;70.14;101242.63;4989257;28;20516;-82
2022/10/25 01:00:32;;;;;;;;;;;;;;;12.87;70.23;101242.63;4985093;28;19969;-82
2022/10/25 01:02:58;;;;;;;;;;;;;;;12.83;70.27;101246.66;4994503;28;20008;-81
2022/10/25 01:05:23;;;;;;;;;;;;;;;12.82;70.19;101253.91;4990201;28;19947;-82
2022/10/25 01:07:48;;;;;;;;;;;;;;;12.81;70.44;101246.84;4988193;28;19925;-82
2022/10/25 01:10:14;;;;;;;;;;;;;;;12.73;70.69;101244.09;4982360;28;20465;-83
2022/10/25 01:12:39;;;;;;;;;;;;;;;12.74;71.05;101236.88;4969805;28;20125;-84
2022/10/25 01:15:05;;;;;;;;;;;;;;;12.74;70.83;101242.25;4971135;28;20015;-84
2022/10/25 01:17:33;;;;;;;;;;;;;;;12.69;71.01;101240.03;4969819;28;19936;-84
2022/10/25 01:20:04;;;;;;;;;;;;;;;12.67;71.07;101236.66;4993496;28;19976;-82
2022/10/25 01:22:36;;;;;;;;;;;;;;;12.51;72.12;101239.25;4988226;28;19936;-83
2022/10/25 01:25:19;;;;;;;;;;;;;;;12.61;71.53;101231.88;4990242;28;19936;-83
2022/10/25 01:27:53;;;;;;;;;;;;;;;12.63;71.38;101225.31;4992654;28;20551;-84
2022/10/25 01:30:22;;;;;;;;;;;;;;;12.63;71.18;101232.59;4988498;28;19925;-85
2022/10/25 01:32:56;;;;;;;;;;;;;;;12.54;71.58;101225.44;4969635;28;20094;-83
2022/10/25 01:35:33;;;;;;;;;;;;;;;12.57;71.67;101223.28;4972377;28;19929;-83
2022/10/25 01:37:58;;;;;;;;;;;;;;;12.60;71.54;101230.22;4972206;28;19925;-83
2022/10/25 01:40:29;;;;;;;;;;;;;;;12.57;71.50;101226.00;4992616;28;20305;-82
2022/10/25 01:43:15;;;;;;;;;;;;;;;12.49;72.04;101230.47;4989884;28;19925;-83
2022/10/25 01:45:53;;;;;;;;;;;;;;;12.38;72.69;101235.13;4948512;28;21784;-82
2022/10/25 01:48:22;;;;;;;;;;;;;;;12.36;72.75;101234.47;4969602;28;19926;-83
2022/10/25 01:50:47;;;;;;;;;;;;;;;12.32;73.02;101226.84;4971658;28;21544;-83
2022/10/25 01:53:14;;;;;;;;;;;;;;;12.35;72.88;101231.91;4956185;28;20377;-84
2022/10/25 01:55:49;;;;;;;;;;;;;;;12.30;73.00;101236.94;4988812;28;19937;-83
2022/10/25 01:58:23;;;;;;;;;;;;;;;12.11;73.49;101232.59;4971110;28;20524;-84
2022/10/25 02:00:49;;;;;;;;;;;;;;;12.09;73.45;101229.19;4996044;28;20476;-84
2022/10/25 02:03:17;;;;;;;;;;;;;;;12.01;73.73;101227.25;4991009;28;19930;-83
2022/10/25 02:06:00;;;;;;;;;;;;;;;11.99;73.61;101222.06;5001733;28;19949;-81
2022/10/25 02:08:38;;;;;;;;;;;;;;;11.98;73.72;101228.44;4993814;28;19921;-82
2022/10/25 02:11:16;;;;;;;;;;;;;;;12.00;73.38;101225.59;4995657;28;19929;-81
2022/10/25 02:14:00;;;;;;;;;;;;;;;11.88;74.04;101227.69;4976536;28;20468;-83
2022/10/25 02:16:26;;;;;;;;;;;;;;;11.88;74.08;101225.00;4996329;28;21661;-82
2022/10/25 02:18:53;;;;;;;;;;;;;;;11.98;73.44;101217.66;4980086;28;19932;-84
2022/10/25 02:21:18;;;;;;;;;;;;;;;11.92;73.41;101218.28;4996428;28;19930;-85
2022/10/25 02:23:43;;;;;;;;;;;;;;;11.84;73.80;101226.25;4981469;28;19936;-83
2022/10/25 02:26:09;;;;;;;;;;;;;;;11.93;73.48;101217.28;4979779;28;20000;-82
2022/10/25 02:28:36;;;;;;;;;;;;;;;11.96;73.42;101219.69;4994557;28;19926;-82
2022/10/25 02:31:02;;;;;;;;;;;;;;;12.01;73.17;101216.50;4984141;28;20421;-84
2022/10/25 02:33:28;;;;;;;;;;;;;;;12.02;73.02;101210.13;4995251;28;19922;-82
2022/10/25 02:36:06;;;;;;;;;;;;;;;11.99;72.91;101205.88;4981766;28;19940;-82
2022/10/25 02:38:31;;;;;;;;;;;;;;;11.96;73.10;101208.91;4993139;28;19937;-84
2022/10/25 02:40:56;;;;;;;;;;;;;;;11.94;73.34;101210.91;4974118;28;20575;-84
2022/10/25 02:43:21;;;;;;;;;;;;;;;12.00;73.00;101209.41;4960616;28;20385;-82
2022/10/25 02:45:47;;;;;;;;;;;;;;;12.00;73.00;101204.88;4976083;28;19968;-83
2022/10/25 02:48:12;;;;;;;;;;;;;;;11.93;73.53;101205.66;4977812;28;19921;-83
2022/10/25 02:50:37;;;;;;;;;;;;;;;11.93;73.48;101202.97;4979698;28;20051;-83
2022/10/25 02:53:03;;;;;;;;;;;;;;;12.01;73.28;101206.59;4974573;28;19972;-83
2022/10/25 02:55:28;;;;;;;;;;;;;;;12.04;72.96;101208.94;4971488;28;20452;-83
2022/10/25 02:57:53;;;;;;;;;;;;;;;12.04;73.14;101208.94;4961917;28;19969;-82
2022/10/25 03:00:19;;;;;;;;;;;;;;;12.03;73.28;101207.28;4972425;28;20028;-81
2022/10/25 03:02:44;;;;;;;;;;;;;;;12.06;73.24;101216.03;4993393;28;19985;-82
2022/10/25 03:05:09;;;;;;;;;;;;;;;12.05;73.38;101212.47;4981269;28;20310;-83
2022/10/25 03:07:35;;;;;;;;;;;;;;;12.02;73.59;101208.25;5007156;28;19929;-84
2022/10/25 03:10:01;;;;;;;;;;;;;;;12.10;73.36;101209.31;4992183;28;20013;-83
2022/10/25 03:12:26;;;;;;;;;;;;;;;12.08;73.61;101209.50;4996057;28;20028;-85
2022/10/25 03:14:52;;;;;;;;;;;;;;;12.04;73.92;101211.66;4992247;28;19974;-83
2022/10/25 03:17:17;;;;;;;;;;;;;;;12.11;73.66;101211.88;4991136;28;19925;-85
2022/10/25 03:19:43;;;;;;;;;;;;;;;12.09;73.78;101210.34;4973868;28;19979;-82
2022/10/25 03:22:09;;;;;;;;;;;;;;;12.09;73.99;101207.63;4977290;28;19929;-83
2022/10/25 03:24:34;;;;;;;;;;;;;;;12.15;73.67;101204.28;4989824;28;19936;-81
2022/10/25 03:27:00;;;;;;;;;;;;;;;12.17;73.54;101207.69;4993187;28;20056;-82
2022/10/25 03:29:25;;;;;;;;;;;;;;;12.16;73.50;101203.31;4986426;28;19925;-84
2022/10/25 03:31:54;;;;;;;;;;;;;;;12.17;73.46;101199.59;4994774;28;19925;-85
2022/10/25 03:34:19;;;;;;;;;;;;;;;12.07;73.77;101196.16;4992472;28;19976;-85
2022/10/25 03:36:44;;;;;;;;;;;;;;;11.97;73.93;101183.63;4992741;28;19996;-84
2022/10/25 03:39:10;;;;;;;;;;;;;;;11.86;74.19;101186.53;4994062;28;19933;-85
2022/10/25 03:41:35;;;;;;;;;;;;;;;11.93;73.58;101184.94;4995538;28;20338;-84
2022/10/25 03:44:01;;;;;;;;;;;;;;;11.88;73.73;101189.97;4990715;28;19929;-84
2022/10/25 03:46:27;;;;;;;;;;;;;;;11.94;73.49;101175.88;4995664;28;20052;-83
2022/10/25 03:48:52;;;;;;;;;;;;;;;11.82;73.75;101183.34;4996601;28;20037;-85
2022/10/25 03:51:17;;;;;;;;;;;;;;;11.88;73.33;101178.34;4976521;28;19929;-84
2022/10/25 03:53:43;;;;;;;;;;;;;;;11.88;73.30;101181.03;5000439;28;19929;-84
2022/10/25 03:56:08;;;;;;;;;;;;;;;11.85;73.42;101179.47;4995643;28;22361;-84
2022/10/25 03:58:33;;;;;;;;;;;;;;;11.83;73.33;101170.69;4992916;28;20369;-84
2022/10/25 04:00:59;;;;;;;;;;;;;;;11.90;73.07;101173.66;4957472;28;20451;-84
2022/10/25 04:03:25;;;;;;;;;;;;;;;11.94;72.90;101172.31;4973201;28;19925;-88
2022/10/25 04:05:51;;;;;;;;;;;;;;;11.96;72.65;101173.88;4975049;28;20300;-83
2022/10/25 04:08:16;;;;;;;;;;;;;;;11.98;72.65;101173.69;4990986;28;19925;-81
2022/10/25 04:10:42;;;;;;;;;;;;;;;11.98;72.68;101173.69;5003449;28;19928;-82
2022/10/25 04:13:07;;;;;;;;;;;;;;;11.96;72.73;101175.69;4986703;28;20011;-84
2022/10/25 04:15:32;;;;;;;;;;;;;;;11.98;72.57;101169.16;4984421;28;19921;-84
2022/10/25 04:17:58;;;;;;;;;;;;;;;12.01;72.45;101168.84;4973619;28;20369;-83
2022/10/25 04:20:23;;;;;;;;;;;;;;;12.03;72.44;101166.84;4989450;28;19932;-82
2022/10/25 04:22:53;;;;;;;;;;;;;;;11.98;72.71;101171.00;5006270;28;19940;-83
2022/10/25 04:25:19;;;;;;;;;;;;;;;11.94;72.76;101172.31;4984986;28;20394;-83
2022/10/25 04:27:44;;;;;;;;;;;;;;;11.93;72.91;101163.38;4972769;28;20011;-83
2022/10/25 04:30:10;;;;;;;;;;;;;;;11.90;73.08;101166.41;4987990;28;19929;-84
2022/10/25 04:32:35;;;;;;;;;;;;;;;11.83;73.43;101160.75;5006383;28;19917;-84
2022/10/25 04:35:01;;;;;;;;;;;;;;;11.85;73.33;101163.31;4988852;28;20119;-82
2022/10/25 04:37:27;;;;;;;;;;;;;;;11.95;72.86;101164.09;5010257;28;19918;-83
2022/10/25 04:39:52;;;;;;;;;;;;;;;11.96;73.09;101162.22;4986592;28;19929;-82
2022/10/25 04:42:19;;;;;;;;;;;;;;;11.99;72.67;101160.06;5008951;28;19922;-82
2022/10/25 04:44:44;;;;;;;;;;;;;;;12.07;72.58;101161.13;4985830;28;19922;-82
2022/10/25 04:47:09;;;;;;;;;;;;;;;12.08;72.48;101157.41;4991410;28;20290;-83
2022/10/25 04:49:35;;;;;;;;;;;;;;;12.09;72.54;101165.34;4984628;28;19925;-84
2022/10/25 04:52:01;;;;;;;;;;;;;;;12.12;72.54;101161.50;4972640;28;19972;-85
2022/10/25 04:54:26;;;;;;;;;;;;;;;12.20;72.31;101157.00;4982222;28;19922;-84
2022/10/25 04:56:52;;;;;;;;;;;;;;;12.30;72.30;101162.28;4974380;28;19924;-82
2022/10/25 04:59:18;;;;;;;;;;;;;;;12.41;72.00;101164.72;5006162;28;19928;-82
2022/10/25 05:01:45;;;;;;;;;;;;;;;12.52;71.89;101165.41;5004157;28;19925;-84
2022/10/25 05:04:11;;;;;;;;;;;;;;;12.59;71.45;101171.84;4990312;28;20883;-84
2022/10/25 05:06:36;;;;;;;;;;;;;;;12.75;71.09;101169.22;4994360;28;19921;-83
2022/10/25 05:09:02;;;;;;;;;;;;;;;12.91;70.87;101162.22;5008810;28;19909;-84
2022/10/25 05:11:27;;;;;;;;;;;;;;;13.04;70.62;101166.13;4998347;28;19937;-83
2022/10/25 05:13:53;;;;;;;;;;;;;;;13.23;70.32;101170.41;4993464;28;20354;-82
2022/10/25 05:16:22;;;;;;;;;;;;;;;13.38;70.40;101167.91;5007214;28;19921;-83
2022/10/25 05:18:47;;;;;;;;;;;;;;;13.60;69.65;101171.81;4982698;28;19929;-85
2022/10/25 05:21:15;;;;;;;;;;;;;;;13.83;69.12;101174.66;5000241;28;19922;-85
2022/10/25 05:23:41;;;;;;;;;;;;;;;13.98;68.63;101164.03;5004215;28;19922;-83
2022/10/25 05:26:31;;;;;;;;;;;;;;;14.28;68.03;101167.88;4981184;28;19921;-82
2022/10/25 05:28:56;;;;;;;;;;;;;;;14.53;67.19;101181.31;5002339;28;19925;-84
2022/10/25 05:31:22;;;;;;;;;;;;;;;14.77;66.46;101169.56;5010277;28;19937;-85
2022/10/25 05:33:48;;;;;;;;;;;;;;;15.19;65.71;101169.19;4986300;28;19921;-84
2022/10/25 05:36:15;;;;;;;;;;;;;;;16.38;62.64;101171.41;5006569;28;19936;-83
2022/10/25 05:38:40;;;;;;;;;;;;;;;17.45;59.36;101170.88;4991097;28;19918;-84
2022/10/25 05:41:07;;;;;;;;;;;;;;;18.10;56.53;101179.84;5005470;28;19963;-83
2022/10/25 05:43:33;;;;;;;;;;;;;;;18.79;54.91;101183.63;5003740;28;19933;-83
2022/10/25 05:46:05;;;;;;;;;;;;;;;19.60;52.56;101187.22;5010116;28;19936;-83
2022/10/25 05:48:31;;;;;;;;;;;;;;;20.49;50.34;101185.13;4986174;28;19988;-84
2022/10/25 05:51:06;;;;;;;;;;;;;;;21.07;48.45;101184.28;4991657;28;20369;-81
2022/10/25 05:53:32;;;;;;;;;;;;;;;21.98;45.64;101182.25;5003584;28;19929;-83
2022/10/25 05:56:01;;;;;;;;;;;;;;;22.67;43.99;101191.28;4991212;28;19918;-84
2022/10/25 05:58:26;;;;;;;;;;;;;;;22.87;42.93;101196.53;5007220;28;19926;-84
2022/10/25 06:00:51;;;;;;;;;;;;;;;23.58;41.30;101193.06;5003206;28;19918;-84
2022/10/25 06:03:19;;;;;;;;;;;;;;;24.26;39.56;101201.06;5002021;28;19922;-84
2022/10/25 06:05:45;;;;;;;;;;;;;;;24.79;38.56;101191.81;5007044;28;19976;-84
2022/10/25 06:08:11;;;;;;;;;;;;;;;25.31;36.84;101200.06;4990799;28;19937;-82
2022/10/25 06:10:37;;;;;;;;;;;;;;;25.86;35.76;101191.16;4984254;28;19947;-81
2022/10/25 06:13:02;;;;;;;;;;;;;;;26.60;34.45;101183.72;5000608;28;20012;-85
2022/10/25 06:15:28;;;;;;;;;;;;;;;26.98;33.72;101191.13;5010237;28;19960;-86
2022/10/25 06:17:53;;;;;;;;;;;;;;;27.25;32.81;101187.56;4989999;28;19975;-84
2022/10/25 06:20:18;;;;;;;;;;;;;;;27.47;32.58;101187.53;4985505;28;19925;-83
2022/10/25 06:22:44;;;;;;;;;;;;;;;28.06;31.41;101183.94;4991638;28;20004;-87
2022/10/25 06:25:09;;;;;;;;;;;;;;;28.44;30.77;101185.53;4985582;28;20309;-85
2022/10/25 06:27:35;;;;;;;;;;;;;;;28.94;29.90;101184.16;4970932;28;19936;-86
2022/10/25 06:30:00;;;;;;;;;;;;;;;28.81;29.28;101184.66;4994651;28;19933;-85
2022/10/25 06:32:26;;;;;;;;;;;;;;;29.08;28.88;101183.66;4980045;28;19976;-85
2022/10/25 06:34:52;;;;;;;;;;;;;;;29.46;28.64;101177.66;4980812;28;19921;-84
2022/10/25 06:37:17;;;;;;;;;;;;;;;29.97;27.81;101176.88;4984599;28;20028;-86
2022/10/25 06:39:45;;;;;;;;;;;;;;;29.80;27.93;101179.09;4998470;28;20025;-86
2022/10/25 06:42:10;;;;;;;;;;;;;;;29.31;28.62;101166.56;5003471;28;19995;-87
2022/10/25 06:44:36;;;;;;;;;;;;;;;29.52;28.79;101170.19;5009676;28;19921;-86
2022/10/25 06:47:01;;;;;;;;;;;;;;;30.37;27.70;101168.78;5008418;28;19968;-88
2022/10/25 06:49:27;;;;;;;;;;;;;;;30.92;26.97;101162.22;5004889;28;20354;-89
2022/10/25 06:51:52;;;;;;;;;;;;;;;31.38;26.28;101165.84;5001469;28;20433;-87
2022/10/25 06:54:18;;;;;;;;;;;;;;;31.73;26.28;101168.38;5005245;28;19933;-88
2022/10/25 06:56:44;;;;;;;;;;;;;;;32.44;25.86;101165.19;4986782;28;20341;-88
2022/10/25 06:59:10;;;;;;;;;;;;;;;32.97;25.26;101154.78;5003886;28;19929;-86
2022/10/25 07:01:36;;;;;;;;;;;;;;;33.03;25.43;101151.94;5005730;28;19930;-87
2022/10/25 07:04:02;;;;;;;;;;;;;;;33.48;24.77;101163.53;4986042;28;19980;-86
2022/10/25 07:06:28;;;;;;;;;;;;;;;33.33;25.39;101150.69;5001578;28;20429;-87
2022/10/25 07:08:57;;;;;;;;;;;;;;;33.65;24.93;101158.28;5001265;28;19921;-88
2022/10/25 07:11:24;;;;;;;;;;;;;;;33.79;25.04;101153.56;4984911;28;19979;-88
2022/10/25 07:13:51;;;;;;;;;;;;;;;33.69;25.37;101152.91;4991384;28;19925;-88
2022/10/25 07:16:17;;;;;;;;;;;;;;;33.71;25.88;101151.47;4983602;28;19922;-90
2022/10/25 07:18:42;;;;;;;;;;;;;;;33.61;25.30;101152.47;4973106;28;19944;-85
2022/10/25 07:21:09;;;;;;;;;;;;;;;33.92;25.21;101153.91;4997711;28;20630;-88
2022/10/25 07:23:40;;;;;;;;;;;;;;;33.70;25.62;101155.41;4987516;28;19932;-88
2022/10/25 07:26:06;;;;;;;;;;;;;;;34.06;25.73;101154.75;5010407;28;19937;-87
2022/10/25 07:28:32;;;;;;;;;;;;;;;33.89;25.46;101155.34;4989701;28;19922;-86
2022/10/25 07:30:58;;;;;;;;;;;;;;;33.92;25.77;101146.34;4985197;28;19926;-88
2022/10/25 07:33:24;;;;;;;;;;;;;;;33.54;26.33;101146.44;5004993;28;19936;-88
2022/10/25 07:35:50;;;;;;;;;;;;;;;33.58;26.24;101146.69;4991271;28;19933;-86
2022/10/25 07:38:18;;;;;;;;;;;;;;;34.19;25.82;101147.56;5012556;28;19925;-86
2022/10/25 07:40:44;;;;;;;;;;;;;;;33.85;26.28;101146.75;5011118;28;19939;-84
2022/10/25 07:43:10;;;;;;;;;;;;;;;34.15;25.70;101141.78;4993795;28;19930;-85
2022/10/25 07:45:36;;;;;;;;;;;;;;;33.61;26.31;101141.31;4996134;28;19928;-88
2022/10/25 07:48:02;;;;;;;;;;;;;;;33.28;27.15;101137.66;5013914;28;20370;-86
2022/10/25 07:50:28;;;;;;;;;;;;;;;33.57;27.10;101142.22;5008207;28;19936;-88
2022/10/25 07:52:56;;;;;;;;;;;;;;;33.97;26.52;101134.28;5004001;28;19926;-90
2022/10/25 07:55:24;;;;;;;;;;;;;;;33.08;27.24;101138.78;4998075;28;19956;-89
2022/10/25 07:57:49;;;;;;;;;;;;;;;33.76;26.83;101134.66;5009598;28;20016;-89
2022/10/25 08:00:15;;;;;;;;;;;;;;;34.18;26.19;101134.75;5005904;28;20012;-91
2022/10/25 08:02:43;;;;;;;;;;;;;;;34.59;25.79;101139.50;5011934;28;19943;-92
2022/10/25 08:05:10;;;;;;;;;;;;;;;34.45;25.78;101133.94;5006705;28;19921;-90
2022/10/25 08:07:36;;;;;;;;;;;;;;;34.66;25.90;101129.59;5014013;28;19972;-91
2022/10/25 08:10:04;;;;;;;;;;;;;;;35.36;25.03;101135.84;5009271;28;19984;-87
2022/10/25 08:12:29;;;;;;;;;;;;;;;35.43;24.11;101127.84;5013963;28;19941;-88
2022/10/25 08:14:56;;;;;;;;;;;;;;;35.78;23.91;101128.09;5013218;28;19917;-89
2022/10/25 08:17:22;;;;;;;;;;;;;;;35.22;24.87;101115.53;5012705;28;19918;-86
2022/10/25 08:19:47;;;;;;;;;;;;;;;35.87;23.76;101126.19;5009425;28;19921;-88
2022/10/25 08:22:13;;;;;;;;;;;;;;;36.53;23.63;101119.88;5009176;28;20401;-86
2022/10/25 08:24:39;;;;;;;;;;;;;;;36.95;22.81;101109.09;5008208;28;20509;-87
2022/10/25 08:27:06;;;;;;;;;;;;;;;36.92;22.12;101109.75;5008811;28;20405;-85
2022/10/25 08:29:32;;;;;;;;;;;;;;;36.78;22.18;101104.28;5007338;28;20077;-85
2022/10/25 08:31:59;;;;;;;;;;;;;;;36.64;22.90;101115.63;5008272;28;19927;-85
2022/10/25 08:34:25;;;;;;;;;;;;;;;37.59;21.75;101111.25;5007953;28;20048;-86
2022/10/25 08:36:50;;;;;;;;;;;;;;;37.28;21.84;101106.66;5006749;28;20021;-84
2022/10/25 08:39:18;;;;;;;;;;;;;;;37.54;21.31;101105.81;4985809;28;20004;-85
2022/10/25 08:41:54;;;;;;;;;;;;;;;38.83;20.13;101103.56;5009631;28;19933;-87
2022/10/25 08:44:23;;;;;;;;;;;;;;;38.23;20.70;101094.34;4987918;28;20028;-88
2022/10/25 08:47:08;;;;;;;;;;;;;;;39.31;19.61;101095.72;4990581;28;19922;-87
2022/10/25 08:49:46;;;;;;;;;;;;;;;40.14;18.73;101095.84;4994267;28;19929;-88
2022/10/25 08:52:16;;;;;;;;;;;;;;;40.46;18.31;101086.47;5014661;28;19971;-89
2022/10/25 08:54:43;;;;;;;;;;;;;;;40.39;17.94;101082.59;5012842;28;19922;-89
2022/10/25 08:57:21;;;;;;;;;;;;;;;39.80;18.50;101083.81;5012029;28;19918;-88
2022/10/25 08:59:48;;;;;;;;;;;;;;;39.76;18.70;101082.88;4996373;28;19926;-89
2022/10/25 09:02:40;;;;;;;;;;;;;;;40.41;17.99;101068.97;4980745;28;19926;-90
2022/10/25 09:05:29;;;;;;;;;;;;;;;40.47;17.97;101078.84;5001319;28;20004;-89
2022/10/25 09:08:33;;;;;;;;;;;;;;;40.72;17.79;101069.19;4982889;28;19921;-88
2022/10/25 09:11:01;;;;;;;;;;;;;;;39.52;17.97;101078.84;4949231;28;20013;-87
2022/10/25 09:13:44;;;;;;;;;;;;;;;39.62;18.36;101072.78;4947121;28;19929;-89
2022/10/25 09:16:15;;;;;;;;;;;;;;;40.05;18.00;101071.44;4982922;28;20000;-90
2022/10/25 09:18:41;;;;;;;;;;;;;;;39.54;17.65;101070.06;5005574;28;19949;-88
2022/10/25 09:21:08;;;;;;;;;;;;;;;40.49;17.35;101062.41;5008893;28;20314;-87
2022/10/25 09:23:35;;;;;;;;;;;;;;;41.05;17.04;101065.31;4989845;28;19980;-89
2022/10/25 09:26:03;;;;;;;;;;;;;;;40.28;17.50;101065.38;4974923;28;20016;-89
2022/10/25 09:28:29;;;;;;;;;;;;;;;39.52;17.82;101067.59;4988263;28;19921;-88
2022/10/25 09:30:56;;;;;;;;;;;;;;;40.47;17.36;101057.13;5008908;28;20021;-86
2022/10/25 09:33:22;;;;;;;;;;;;;;;40.71;16.38;101059.06;5005895;28;20423;-88
2022/10/25 09:35:48;;;;;;;;;;;;;;;41.46;15.75;101056.78;4988429;28;19917;-88
2022/10/25 09:38:17;;;;;;;;;;;;;;;41.73;15.40;101060.75;4997876;28;19975;-86
2022/10/25 09:41:02;;;;;;;;;;;;;;;42.82;14.53;101054.47;5006807;28;19944;-84
2022/10/25 09:43:34;;;;;;;;;;;;;;;43.19;14.22;101045.53;4989500;28;19921;-85
2022/10/25 09:46:02;;;;;;;;;;;;;;;42.57;14.48;101046.25;4984375;28;19943;-83
2022/10/25 09:49:00;;;;;;;;;;;;;;;41.36;14.76;101043.22;4976534;28;19972;-86
2022/10/25 09:51:38;;;;;;;;;;;;;;;41.16;15.26;101037.44;4999170;28;19975;-84
2022/10/25 09:54:08;;;;;;;;;;;;;;;40.32;15.78;101032.50;5023078;28;20401;-83
2022/10/25 09:56:34;;;;;;;;;;;;;;;40.35;15.78;101031.78;5010044;28;19933;-83
2022/10/25 09:59:03;;;;;;;;;;;;;;;39.97;16.19;101032.97;5005920;28;20001;-84
2022/10/25 10:01:28;;;;;;;;;;;;;;;38.24;17.49;101036.22;5010225;28;20386;-82
2022/10/25 10:03:55;;;;;;;;;;;;;;;37.84;18.46;101027.31;5005524;28;19972;-83
2022/10/25 10:06:20;;;;;;;;;;;;;;;37.58;18.71;101023.47;5021093;28;20013;-82
2022/10/25 10:08:54;;;;;;;;;;;;;;;38.03;18.15;101016.53;5004040;28;19929;-85
2022/10/25 10:11:20;;;;;;;;;;;;;;;37.21;19.51;101015.81;5009068;28;19969;-82
2022/10/25 10:13:54;;;;;;;;;;;;;;;37.59;19.05;101016.69;5007927;28;19918;-89
2022/10/25 10:16:21;;;;;;;;;;;;;;;37.63;19.00;101010.41;5004958;28;19976;-85
2022/10/25 10:18:47;;;;;;;;;;;;;;;36.75;20.27;101004.94;5008239;28;19924;-85
2022/10/25 10:21:15;;;;;;;;;;;;;;;35.61;21.26;101007.75;5011730;28;19917;-85
2022/10/25 10:23:40;;;;;;;;;;;;;;;35.34;22.24;101012.38;5018850;28;19930;-87
2022/10/25 10:26:11;;;;;;;;;;;;;;;34.91;22.62;101007.28;5022654;28;19988;-85
2022/10/25 10:28:36;;;;;;;;;;;;;;;35.42;22.51;100994.00;5014630;28;19980;-85
2022/10/25 10:31:02;;;;;;;;;;;;;;;35.51;22.26;100992.88;5001572;28;20393;-85
2022/10/25 10:33:29;;;;;;;;;;;;;;;34.92;22.28;100994.16;5013189;28;19925;-85
2022/10/25 10:35:55;;;;;;;;;;;;;;;34.89;22.84;100992.81;5007722;28;19948;-85
2022/10/25 10:38:27;;;;;;;;;;;;;;;34.53;23.40;100990.84;5012026;28;20395;-85
2022/10/25 10:41:13;;;;;;;;;;;;;;;34.51;23.06;100983.91;5006898;28;20008;-85
2022/10/25 10:43:38;;;;;;;;;;;;;;;33.80;23.77;100987.09;5011176;28;19924;-84
2022/10/25 10:46:06;;;;;;;;;;;;;;;33.46;24.01;100981.88;5014825;28;20001;-84
2022/10/25 10:48:32;;;;;;;;;;;;;;;33.09;24.22;100980.88;5005905;28;19921;-85
2022/10/25 10:50:59;;;;;;;;;;;;;;;32.96;24.80;100968.50;5006716;28;19956;-85
2022/10/25 10:53:28;;;;;;;;;;;;;;;33.37;24.73;100968.66;5011107;28;19917;-85
2022/10/25 10:55:53;;;;;;;;;;;;;;;33.16;24.88;100968.19;5005535;28;20060;-84
2022/10/25 10:58:26;;;;;;;;;;;;;;;32.15;26.08;100969.44;5012335;28;20685;-85
2022/10/25 11:00:54;;;;;;;;;;;;;;;32.50;25.90;100961.75;4993004;28;19929;-83
2022/10/25 11:03:38;;;;;;;;;;;;;;;33.06;25.39;100961.97;5008581;28;19922;-85
2022/10/25 11:06:04;;;;;;;;;;;;;;;33.35;25.68;100964.53;5003605;28;19933;-84
2022/10/25 11:08:29;;;;;;;;;;;;;;;33.46;25.14;100954.00;5015477;28;19921;-84
2022/10/25 11:11:15;;;;;;;;;;;;;;;33.82;24.79;100963.34;5014409;28;20028;-84
2022/10/25 11:13:45;;;;;;;;;;;;;;;34.17;24.25;100963.75;5016531;28;19924;-83
2022/10/25 11:16:23;;;;;;;;;;;;;;;34.29;23.82;100952.03;5013869;28;19918;-84
2022/10/25 11:19:10;;;;;;;;;;;;;;;34.39;24.40;100950.97;5021647;28;20358;-84
2022/10/25 11:21:44;;;;;;;;;;;;;;;34.93;23.20;100948.31;5006153;28;19918;-85
2022/10/25 11:24:12;;;;;;;;;;;;;;;34.81;23.78;100954.47;5009313;28;20007;-84
2022/10/25 11:26:37;;;;;;;;;;;;;;;35.03;23.32;100937.69;5008239;28;19960;-84
2022/10/25 11:29:06;;;;;;;;;;;;;;;35.21;23.06;100940.63;5020242;28;19952;-85
2022/10/25 11:31:31;;;;;;;;;;;;;;;35.09;22.61;100932.78;4995985;28;19977;-84
2022/10/25 11:33:56;;;;;;;;;;;;;;;35.46;22.67;100930.72;4992929;28;19918;-84
2022/10/25 11:36:25;;;;;;;;;;;;;;;35.48;22.64;100923.66;5002342;28;19917;-84
2022/10/25 11:38:50;;;;;;;;;;;;;;;35.43;22.37;100925.78;4978775;28;19965;-83
2022/10/25 11:41:26;;;;;;;;;;;;;;;34.87;22.41;100931.69;5001744;28;19953;-85
2022/10/25 11:44:24;;;;;;;;;;;;;;;35.02;22.77;100921.25;4976141;28;20718;-86
2022/10/25 11:46:52;;;;;;;;;;;;;;;34.41;24.08;100918.00;4949136;29;19930;-86
2022/10/25 11:49:38;;;;;;;;;;;;;;;33.85;24.76;100926.47;4943107;28;19932;-86
2022/10/25 11:52:09;;;;;;;;;;;;;;;32.63;25.87;100921.16;4965481;28;19949;-84
2022/10/25 11:54:58;;;;;;;;;;;;;;;32.59;25.84;100923.75;4993554;28;20020;-84
2022/10/25 11:57:35;;;;;;;;;;;;;;;32.34;26.44;100924.13;4975548;28;19940;-85
2022/10/25 12:00:00;;;;;;;;;;;;;;;31.24;27.95;100916.53;4996059;28;20024;-85
2022/10/25 12:02:44;;;;;;;;;;;;;;;30.83;28.74;100914.09;4988599;28;20005;-86
2022/10/25 12:05:42;;;;;;;;;;;;;;;30.11;30.17;100918.47;4995284;28;19933;-85
2022/10/25 12:08:19;;;;;;;;;;;;;;;29.36;31.74;100913.75;4946099;28;20001;-83
2022/10/25 12:10:47;;;;;;;;;;;;;;;29.09;32.33;100920.44;4958603;28;20486;-85
2022/10/25 12:13:48;;;;;;;;;;;;;;;28.94;32.52;100917.66;4976421;28;19975;-84
2022/10/25 12:16:17;;;;;;;;;;;;;;;28.68;33.75;100909.38;4994959;28;19926;-84
2022/10/25 12:18:47;;;;;;;;;;;;;;;28.71;34.06;100908.00;4992859;28;20489;-83
2022/10/25 12:21:18;;;;;;;;;;;;;;;28.35;34.06;100906.00;4982483;28;19965;-83
2022/10/25 12:23:48;;;;;;;;;;;;;;;27.81;35.65;100917.38;4975386;28;20594;-84
2022/10/25 12:26:24;;;;;;;;;;;;;;;27.76;35.24;100911.84;4979158;28;20331;-83
2022/10/25 12:28:52;;;;;;;;;;;;;;;27.43;35.91;100905.63;4973530;28;20282;-83
2022/10/25 12:31:20;;;;;;;;;;;;;;;26.88;37.10;100907.72;4979386;28;20394;-84
2022/10/25 12:33:57;;;;;;;;;;;;;;;26.83;37.14;100902.16;4991156;28;19917;-84
2022/10/25 12:36:24;;;;;;;;;;;;;;;26.24;38.39;100908.44;5000887;28;19961;-82
2022/10/25 12:38:49;;;;;;;;;;;;;;;26.20;38.82;100903.72;4978598;28;20008;-83
2022/10/25 12:41:19;;;;;;;;;;;;;;;26.38;39.01;100902.53;4979716;28;20398;-86
2022/10/25 12:44:16;;;;;;;;;;;;;;;26.48;38.60;100895.22;4973013;28;20070;-83